Time;durP1;ratioP1;P1;durP2;ratioP2;P2;SDS_P1;SDS_P2;PMS_P1;PMS_P2;Temp;Humidity;BMP_temperature;BMP_pressure;BME280_temperature;BME280_humidity;BME280_pressure;Samples;Min_cycle;Max_cycle;Signal;HPM_P1;HPM_P2
2023/04/04 00:00:34;;;;;;;3.55;2.72;;;;;;;;;;5032061;28;20501;-81
2023/04/04 00:03:00;;;;;;;6.07;2.70;;;;;;;;;;5013074;28;20067;-81
2023/04/04 00:05:26;;;;;;;4.10;2.83;;;;;;;;;;5022259;28;20041;-81
2023/04/04 00:07:52;;;;;;;4.55;3.03;;;;;;;;;;5027591;28;20052;-81
2023/04/04 00:10:19;;;;;;;4.75;3.10;;;;;;;;;;5031822;28;20045;-81
2023/04/04 00:12:45;;;;;;;5.95;3.42;;;;;;;;;;5032006;28;20041;-81
2023/04/04 00:15:11;;;;;;;4.82;2.88;;;;;;;;;;5036264;28;20124;-82
2023/04/04 00:17:38;;;;;;;6.18;2.90;;;;;;;;;;5055079;28;20119;-81
2023/04/04 00:20:04;;;;;;;5.93;3.20;;;;;;;;;;5040294;28;20049;-81
2023/04/04 00:22:31;;;;;;;4.85;2.83;;;;;;;;;;5022123;28;20091;-81
2023/04/04 00:24:57;;;;;;;5.22;3.30;;;;;;;;;;5035120;28;20132;-82
2023/04/04 00:27:23;;;;;;;6.10;3.28;;;;;;;;;;5052647;28;20080;-82
2023/04/04 00:29:49;;;;;;;4.35;2.70;;;;;;;;;;5036866;28;20518;-82
2023/04/04 00:32:15;;;;;;;5.20;3.17;;;;;;;;;;5047301;28;20049;-82
2023/04/04 00:34:42;;;;;;;4.20;3.20;;;;;;;;;;5026996;28;20128;-81
2023/04/04 00:37:11;;;;;;;6.55;3.20;;;;;;;;;;5036685;28;20048;-81
2023/04/04 00:39:37;;;;;;;6.22;3.40;;;;;;;;;;5045892;28;20049;-81
2023/04/04 00:42:03;;;;;;;5.22;3.80;;;;;;;;;;5034724;28;20545;-81
2023/04/04 00:44:29;;;;;;;5.88;3.58;;;;;;;;;;5016349;28;20053;-81
2023/04/04 00:46:55;;;;;;;4.80;3.58;;;;;;;;;;5016443;28;20409;-82
2023/04/04 00:49:21;;;;;;;5.60;3.38;;;;;;;;;;5035726;28;20388;-82
2023/04/04 00:51:48;;;;;;;4.82;3.15;;;;;;;;;;5017474;28;20045;-82
2023/04/04 00:54:14;;;;;;;5.10;3.40;;;;;;;;;;5053083;28;20120;-82
2023/04/04 00:56:40;;;;;;;5.45;3.45;;;;;;;;;;5025390;28;20512;-81
2023/04/04 00:59:07;;;;;;;5.75;3.20;;;;;;;;;;5033932;28;20075;-81
2023/04/04 01:01:33;;;;;;;7.00;3.70;;;;;;;;;;5017203;28;20490;-82
2023/04/04 01:03:59;;;;;;;5.38;3.47;;;;;;;;;;5017471;28;20400;-82
2023/04/04 01:06:26;;;;;;;5.80;3.35;;;;;;;;;;5047894;28;20046;-82
2023/04/04 01:08:54;;;;;;;5.95;3.70;;;;;;;;;;5050491;28;20496;-82
2023/04/04 01:11:20;;;;;;;4.15;3.30;;;;;;;;;;5037126;28;20037;-82
2023/04/04 01:13:47;;;;;;;5.13;3.83;;;;;;;;;;5021517;28;20393;-82
2023/04/04 01:16:13;;;;;;;5.15;3.63;;;;;;;;;;5037364;28;20042;-82
2023/04/04 01:18:40;;;;;;;4.85;3.80;;;;;;;;;;5031327;28;20037;-82
2023/04/04 01:21:11;;;;;;;5.75;3.42;;;;;;;;;;5049561;28;20049;-81
2023/04/04 01:23:56;;;;;;;6.78;3.53;;;;;;;;;;5043007;28;20121;-81
2023/04/04 01:26:22;;;;;;;5.10;3.20;;;;;;;;;;5024635;28;20056;-82
2023/04/04 01:28:49;;;;;;;7.18;3.60;;;;;;;;;;5034978;28;20052;-81
2023/04/04 01:31:20;;;;;;;4.88;3.47;;;;;;;;;;5033855;28;20053;-81
2023/04/04 01:33:53;;;;;;;5.57;3.75;;;;;;;;;;5034385;28;20392;-81
2023/04/04 01:36:25;;;;;;;6.38;3.65;;;;;;;;;;5033813;28;20076;-81
2023/04/04 01:39:08;;;;;;;6.38;3.35;;;;;;;;;;5019138;28;20053;-81
2023/04/04 01:41:34;;;;;;;4.75;3.60;;;;;;;;;;5015475;28;20552;-81
2023/04/04 01:44:00;;;;;;;7.68;3.50;;;;;;;;;;5015980;28;20045;-81
2023/04/04 01:46:26;;;;;;;5.15;3.75;;;;;;;;;;5042472;28;20392;-81
2023/04/04 01:48:52;;;;;;;5.85;3.58;;;;;;;;;;5048541;28;20048;-80
2023/04/04 01:51:19;;;;;;;6.30;3.55;;;;;;;;;;5016207;28;20052;-80
2023/04/04 01:53:45;;;;;;;7.78;3.75;;;;;;;;;;5037572;28;20044;-81
2023/04/04 01:56:11;;;;;;;6.22;3.63;;;;;;;;;;5056983;28;20107;-81
2023/04/04 01:58:37;;;;;;;6.10;3.67;;;;;;;;;;5048166;28;20053;-81
2023/04/04 02:01:03;;;;;;;6.65;3.50;;;;;;;;;;5024037;28;20099;-81
2023/04/04 02:03:29;;;;;;;4.90;3.60;;;;;;;;;;5042547;28;20073;-81
2023/04/04 02:05:55;;;;;;;5.35;4.10;;;;;;;;;;5040355;28;20056;-81
2023/04/04 02:08:21;;;;;;;6.65;3.88;;;;;;;;;;5029997;28;20053;-81
2023/04/04 02:10:47;;;;;;;6.10;4.13;;;;;;;;;;5016315;28;20048;-81
2023/04/04 02:13:13;;;;;;;7.25;4.10;;;;;;;;;;5017416;28;20444;-81
2023/04/04 02:15:39;;;;;;;8.65;4.22;;;;;;;;;;5049326;28;20041;-81
2023/04/04 02:18:06;;;;;;;5.65;3.90;;;;;;;;;;5017477;28;20165;-81
2023/04/04 02:20:32;;;;;;;8.68;3.67;;;;;;;;;;5027934;28;20088;-81
2023/04/04 02:22:58;;;;;;;6.70;3.97;;;;;;;;;;5026107;28;20044;-81
2023/04/04 02:25:24;;;;;;;7.22;4.05;;;;;;;;;;5041202;28;20046;-81
2023/04/04 02:27:50;;;;;;;5.40;3.97;;;;;;;;;;5020232;28;20041;-81
2023/04/04 02:30:16;;;;;;;6.38;4.20;;;;;;;;;;5037966;28;20473;-81
2023/04/04 02:32:42;;;;;;;6.50;4.05;;;;;;;;;;5017659;28;20056;-81
2023/04/04 02:35:08;;;;;;;6.05;3.75;;;;;;;;;;5032332;28;20082;-81
2023/04/04 02:37:34;;;;;;;8.07;3.83;;;;;;;;;;5018648;28;20393;-81
2023/04/04 02:40:00;;;;;;;4.22;3.47;;;;;;;;;;5027833;28;20057;-81
2023/04/04 02:42:26;;;;;;;7.68;4.82;;;;;;;;;;5049617;28;20048;-81
2023/04/04 02:44:52;;;;;;;6.47;3.95;;;;;;;;;;5036546;28;20424;-81
2023/04/04 02:47:18;;;;;;;7.50;4.72;;;;;;;;;;5022936;28;20065;-81
2023/04/04 02:49:44;;;;;;;6.65;4.43;;;;;;;;;;5038337;28;20045;-81
2023/04/04 02:52:11;;;;;;;4.78;4.03;;;;;;;;;;5022163;28;20037;-81
2023/04/04 02:54:37;;;;;;;6.35;4.50;;;;;;;;;;5035954;28;20033;-81
2023/04/04 02:57:03;;;;;;;7.68;4.38;;;;;;;;;;5024717;28;20124;-81
2023/04/04 02:59:29;;;;;;;7.97;4.68;;;;;;;;;;5025626;28;20100;-83
2023/04/04 03:01:55;;;;;;;7.28;4.35;;;;;;;;;;5037589;28;20443;-83
2023/04/04 03:04:21;;;;;;;6.97;4.47;;;;;;;;;;5029932;28;20504;-83
2023/04/04 03:06:47;;;;;;;9.13;4.70;;;;;;;;;;5026695;28;20037;-85
2023/04/04 03:09:14;;;;;;;8.18;4.90;;;;;;;;;;5032147;28;20049;-83
2023/04/04 03:11:40;;;;;;;7.45;4.32;;;;;;;;;;5018531;28;20551;-83
2023/04/04 03:14:07;;;;;;;7.03;4.63;;;;;;;;;;5031342;28;20479;-83
2023/04/04 03:16:33;;;;;;;8.23;4.45;;;;;;;;;;5032313;28;20120;-83
2023/04/04 03:18:59;;;;;;;6.45;4.40;;;;;;;;;;5036042;28;20048;-83
2023/04/04 03:21:26;;;;;;;6.22;4.57;;;;;;;;;;5033068;28;20489;-83
2023/04/04 03:23:52;;;;;;;8.20;4.70;;;;;;;;;;5035822;28;20067;-83
2023/04/04 03:26:18;;;;;;;8.18;4.90;;;;;;;;;;5032352;28;20042;-83
2023/04/04 03:28:44;;;;;;;8.68;5.00;;;;;;;;;;5034288;28;20045;-83
2023/04/04 03:31:10;;;;;;;6.80;4.60;;;;;;;;;;5030214;28;20042;-84
2023/04/04 03:33:41;;;;;;;7.07;4.85;;;;;;;;;;5033530;28;20049;-83
2023/04/04 03:36:13;;;;;;;8.60;4.95;;;;;;;;;;5033882;28;20045;-83
2023/04/04 03:38:39;;;;;;;9.85;5.10;;;;;;;;;;5021948;28;20046;-83
2023/04/04 03:41:06;;;;;;;8.75;5.28;;;;;;;;;;5013694;28;20045;-83
2023/04/04 03:43:32;;;;;;;8.20;5.47;;;;;;;;;;5015455;28;20535;-83
2023/04/04 03:46:02;;;;;;;7.35;4.97;;;;;;;;;;5024965;28;20059;-83
2023/04/04 03:48:28;;;;;;;8.02;5.30;;;;;;;;;;5028801;28;20128;-83
2023/04/04 03:50:56;;;;;;;8.85;5.70;;;;;;;;;;5014192;28;20055;-83
2023/04/04 03:53:22;;;;;;;7.68;5.07;;;;;;;;;;5032191;28;20497;-83
2023/04/04 03:55:48;;;;;;;8.30;5.65;;;;;;;;;;5018968;28;20053;-83
2023/04/04 03:58:15;;;;;;;7.50;5.30;;;;;;;;;;5030362;28;20108;-83
2023/04/04 04:00:41;;;;;;;10.18;5.80;;;;;;;;;;5028630;28;20075;-83
2023/04/04 04:03:07;;;;;;;7.57;5.65;;;;;;;;;;5019994;28;20049;-83
2023/04/04 04:05:33;;;;;;;9.00;5.28;;;;;;;;;;5013660;28;20051;-83
2023/04/04 04:07:59;;;;;;;9.48;5.90;;;;;;;;;;5046917;28;20037;-84
2023/04/04 04:10:25;;;;;;;7.68;5.82;;;;;;;;;;5027430;28;20124;-83
2023/04/04 04:12:51;;;;;;;11.32;5.70;;;;;;;;;;5032513;28;20485;-83
2023/04/04 04:15:17;;;;;;;12.57;6.30;;;;;;;;;;5035718;28;20041;-83
2023/04/04 04:17:43;;;;;;;7.68;6.05;;;;;;;;;;5012711;28;20056;-83
2023/04/04 04:20:10;;;;;;;9.43;5.78;;;;;;;;;;5020226;28;20432;-83
2023/04/04 04:22:37;;;;;;;9.65;5.72;;;;;;;;;;5027536;28;20072;-83
2023/04/04 04:25:03;;;;;;;10.23;6.57;;;;;;;;;;5025553;28;20057;-83
2023/04/04 04:27:29;;;;;;;10.48;6.55;;;;;;;;;;5048535;28;20048;-82
2023/04/04 04:29:56;;;;;;;8.20;6.00;;;;;;;;;;5046026;28;20163;-82
2023/04/04 04:32:22;;;;;;;9.77;6.10;;;;;;;;;;5014578;28;20095;-82
2023/04/04 04:34:48;;;;;;;10.38;6.43;;;;;;;;;;5013955;28;20440;-82
2023/04/04 04:37:14;;;;;;;11.82;6.70;;;;;;;;;;5039995;28;20100;-82
2023/04/04 04:39:40;;;;;;;9.38;6.55;;;;;;;;;;5040454;28;20069;-82
2023/04/04 04:42:06;;;;;;;9.43;6.25;;;;;;;;;;5033090;28;20733;-82
2023/04/04 04:44:32;;;;;;;8.88;6.15;;;;;;;;;;5049556;28;20462;-82
2023/04/04 04:46:58;;;;;;;8.77;6.45;;;;;;;;;;5018723;28;20048;-82
2023/04/04 04:49:24;;;;;;;12.35;6.22;;;;;;;;;;5014375;28;20103;-82
2023/04/04 04:51:50;;;;;;;10.05;5.93;;;;;;;;;;5041882;28;20041;-82
2023/04/04 04:54:16;;;;;;;11.38;6.97;;;;;;;;;;5050808;28;20124;-82
2023/04/04 04:56:42;;;;;;;11.88;7.03;;;;;;;;;;5037000;28;20627;-82
2023/04/04 04:59:10;;;;;;;12.63;7.50;;;;;;;;;;5013134;28;20132;-82
2023/04/04 05:01:36;;;;;;;11.32;7.75;;;;;;;;;;5040787;28;20150;-82
2023/04/04 05:04:02;;;;;;;13.15;7.65;;;;;;;;;;5035315;28;20056;-83
2023/04/04 05:06:28;;;;;;;11.23;7.88;;;;;;;;;;5015897;28;20053;-82
2023/04/04 05:08:54;;;;;;;11.98;8.10;;;;;;;;;;5034051;28;20401;-83
2023/04/04 05:11:20;;;;;;;11.02;8.02;;;;;;;;;;5041271;28;20041;-82
2023/04/04 05:13:47;;;;;;;13.43;8.23;;;;;;;;;;5041714;28;20040;-82
2023/04/04 05:16:13;;;;;;;10.73;7.20;;;;;;;;;;5032492;28;20063;-82
2023/04/04 05:18:39;;;;;;;16.70;10.48;;;;;;;;;;5034424;28;20073;-82
2023/04/04 05:21:05;;;;;;;14.85;9.20;;;;;;;;;;5021448;28;20535;-82
2023/04/04 05:23:31;;;;;;;15.45;10.18;;;;;;;;;;5036526;28;20447;-82
2023/04/04 05:25:57;;;;;;;11.43;8.30;;;;;;;;;;5016206;28;20057;-82
2023/04/04 05:28:23;;;;;;;11.45;7.13;;;;;;;;;;5030516;28;20564;-82
2023/04/04 05:30:49;;;;;;;9.38;7.07;;;;;;;;;;5020880;28;20131;-82
2023/04/04 05:33:15;;;;;;;8.75;6.78;;;;;;;;;;5015773;28;20049;-81
2023/04/04 05:35:41;;;;;;;11.75;7.55;;;;;;;;;;5034902;28;20053;-82
2023/04/04 05:38:07;;;;;;;8.88;7.05;;;;;;;;;;5049622;28;20098;-82
2023/04/04 05:40:33;;;;;;;10.50;7.07;;;;;;;;;;5025506;28;20271;-82
2023/04/04 05:43:03;;;;;;;9.90;6.88;;;;;;;;;;5043569;28;20461;-82
2023/04/04 05:45:29;;;;;;;9.55;7.43;;;;;;;;;;5046283;28;20055;-82
2023/04/04 05:47:55;;;;;;;9.48;7.03;;;;;;;;;;5024584;28;20045;-82
2023/04/04 05:50:21;;;;;;;8.90;6.88;;;;;;;;;;5041934;28;20049;-82
2023/04/04 05:52:48;;;;;;;10.32;7.30;;;;;;;;;;5023617;28;20060;-78
2023/04/04 05:55:14;;;;;;;11.77;7.25;;;;;;;;;;5047201;28;20493;-81
2023/04/04 05:57:47;;;;;;;12.60;7.28;;;;;;;;;;5020910;28;20052;-82
2023/04/04 06:00:14;;;;;;;10.88;7.38;;;;;;;;;;5049314;28;20526;-81
2023/04/04 06:02:40;;;;;;;9.95;7.13;;;;;;;;;;5025966;28;20042;-80
2023/04/04 06:05:07;;;;;;;10.55;7.40;;;;;;;;;;5033103;28;20046;-82
2023/04/04 06:07:33;;;;;;;11.07;6.95;;;;;;;;;;5036672;28;20042;-82
2023/04/04 06:09:59;;;;;;;8.65;7.03;;;;;;;;;;5024313;28;20075;-82
2023/04/04 06:12:26;;;;;;;12.07;6.93;;;;;;;;;;5031715;28;20049;-81
2023/04/04 06:14:52;;;;;;;8.23;7.03;;;;;;;;;;5047855;28;20049;-82
2023/04/04 06:17:18;;;;;;;9.38;6.95;;;;;;;;;;5014337;28;20481;-82
2023/04/04 06:19:44;;;;;;;12.82;7.28;;;;;;;;;;5028966;28;20077;-81
2023/04/04 06:22:10;;;;;;;12.32;7.50;;;;;;;;;;5018271;28;20054;-81
2023/04/04 06:24:36;;;;;;;9.30;7.28;;;;;;;;;;5031289;28;20048;-82
2023/04/04 06:27:02;;;;;;;11.40;7.28;;;;;;;;;;5033938;28;20452;-82
2023/04/04 06:29:28;;;;;;;11.05;7.57;;;;;;;;;;5013575;28;20073;-82
2023/04/04 06:31:54;;;;;;;9.75;7.32;;;;;;;;;;5021255;28;20045;-81
2023/04/04 06:34:21;;;;;;;13.25;7.57;;;;;;;;;;5015539;28;20099;-81
2023/04/04 06:36:47;;;;;;;12.45;7.85;;;;;;;;;;5015788;28;20053;-81
2023/04/04 06:39:13;;;;;;;12.32;7.32;;;;;;;;;;5013922;28;20053;-81
2023/04/04 06:41:39;;;;;;;11.35;7.30;;;;;;;;;;5022472;28;20041;-81
2023/04/04 06:44:05;;;;;;;11.68;7.63;;;;;;;;;;5016856;28;20132;-81
2023/04/04 06:46:32;;;;;;;12.00;7.10;;;;;;;;;;5041441;28;20120;-82
2023/04/04 06:48:58;;;;;;;13.48;7.95;;;;;;;;;;5036858;28;20556;-82
2023/04/04 06:51:24;;;;;;;11.27;7.15;;;;;;;;;;5046524;28;20115;-82
2023/04/04 06:53:50;;;;;;;10.70;7.22;;;;;;;;;;5042884;28;20432;-81
2023/04/04 06:56:17;;;;;;;10.15;6.88;;;;;;;;;;5023800;28;20096;-82
2023/04/04 06:58:43;;;;;;;11.32;7.20;;;;;;;;;;5032239;28;20064;-82
2023/04/04 07:01:09;;;;;;;9.13;6.50;;;;;;;;;;5036603;28;20094;-80
2023/04/04 07:03:35;;;;;;;10.73;6.78;;;;;;;;;;5016896;28;20064;-80
2023/04/04 07:06:04;;;;;;;8.75;7.18;;;;;;;;;;5051642;28;20103;-80
2023/04/04 07:08:32;;;;;;;9.48;6.95;;;;;;;;;;5049473;28;20062;-80
2023/04/04 07:10:59;;;;;;;11.15;7.05;;;;;;;;;;5016895;28;20120;-80
2023/04/04 07:13:25;;;;;;;9.88;7.45;;;;;;;;;;5019404;28;20103;-81
2023/04/04 07:15:51;;;;;;;9.13;6.30;;;;;;;;;;5032622;28;20044;-80
2023/04/04 07:18:17;;;;;;;8.55;6.13;;;;;;;;;;5020122;28;20480;-80
2023/04/04 07:20:46;;;;;;;10.80;6.75;;;;;;;;;;5033305;28;20117;-80
2023/04/04 07:23:12;;;;;;;9.70;7.00;;;;;;;;;;5020482;28;20106;-80
2023/04/04 07:25:38;;;;;;;9.65;6.50;;;;;;;;;;5016815;28;20053;-80
2023/04/04 07:28:04;;;;;;;9.90;6.70;;;;;;;;;;5015357;28;20067;-80
2023/04/04 07:30:32;;;;;;;7.55;5.90;;;;;;;;;;5035055;28;20242;-80
2023/04/04 07:32:58;;;;;;;9.35;6.85;;;;;;;;;;5032329;28;20068;-82
2023/04/04 07:35:24;;;;;;;11.70;6.20;;;;;;;;;;5018425;28;20140;-82
2023/04/04 07:37:51;;;;;;;10.38;5.97;;;;;;;;;;5039635;28;20072;-82
2023/04/04 07:40:17;;;;;;;7.70;5.72;;;;;;;;;;5012038;28;20466;-81
2023/04/04 07:42:53;;;;;;;7.43;5.75;;;;;;;;;;5021024;28;20033;-81
2023/04/04 07:45:19;;;;;;;10.77;6.45;;;;;;;;;;5013165;28;20080;-80
2023/04/04 07:47:45;;;;;;;9.60;6.72;;;;;;;;;;5019507;28;20049;-80
2023/04/04 07:50:15;;;;;;;8.98;6.38;;;;;;;;;;5022278;28;20065;-80
2023/04/04 07:52:41;;;;;;;9.07;6.25;;;;;;;;;;5012690;28;20038;-80
2023/04/04 07:55:07;;;;;;;9.27;5.97;;;;;;;;;;5019286;28;20136;-80
2023/04/04 07:57:37;;;;;;;9.32;5.85;;;;;;;;;;5039881;28;20135;-80
2023/04/04 08:00:04;;;;;;;10.60;6.18;;;;;;;;;;5031349;28;20044;-81
2023/04/04 08:02:31;;;;;;;8.02;5.97;;;;;;;;;;5028129;28;20053;-80
2023/04/04 08:04:57;;;;;;;7.32;5.78;;;;;;;;;;5012737;28;20045;-80
2023/04/04 08:07:23;;;;;;;8.90;6.60;;;;;;;;;;5023996;28;20562;-81
2023/04/04 08:09:49;;;;;;;10.10;5.20;;;;;;;;;;5032253;28;20045;-80
2023/04/04 08:12:15;;;;;;;9.13;6.18;;;;;;;;;;5031225;28;20095;-80
2023/04/04 08:14:41;;;;;;;10.43;6.53;;;;;;;;;;5017074;28;20057;-80
2023/04/04 08:17:07;;;;;;;7.85;6.20;;;;;;;;;;5016405;28;20041;-80
2023/04/04 08:19:33;;;;;;;14.00;6.78;;;;;;;;;;5038976;28;20222;-80
2023/04/04 08:21:59;;;;;;;10.25;5.78;;;;;;;;;;5014370;28;20556;-80
2023/04/04 08:24:25;;;;;;;10.25;6.32;;;;;;;;;;5026436;28;20155;-81
2023/04/04 08:26:51;;;;;;;10.13;6.22;;;;;;;;;;5017417;28;20115;-80
2023/04/04 08:29:17;;;;;;;11.55;6.38;;;;;;;;;;5018313;28;20659;-80
2023/04/04 08:31:43;;;;;;;9.15;6.47;;;;;;;;;;5033010;28;20168;-81
2023/04/04 08:34:09;;;;;;;7.88;5.95;;;;;;;;;;5014015;28;20068;-81
2023/04/04 08:36:36;;;;;;;9.82;6.25;;;;;;;;;;5018924;28;20041;-80
2023/04/04 08:39:05;;;;;;;8.38;6.10;;;;;;;;;;5019777;28;20045;-80
2023/04/04 08:41:34;;;;;;;7.88;6.18;;;;;;;;;;5021928;28;20054;-80
2023/04/04 08:44:03;;;;;;;8.48;6.13;;;;;;;;;;5039600;28;20092;-80
2023/04/04 08:46:29;;;;;;;7.78;5.80;;;;;;;;;;5041428;28;20116;-80
2023/04/04 08:48:56;;;;;;;9.02;6.78;;;;;;;;;;5042731;28;20595;-80
2023/04/04 08:51:25;;;;;;;8.50;5.80;;;;;;;;;;5017268;28;20417;-80
2023/04/04 08:53:51;;;;;;;7.85;6.15;;;;;;;;;;5026864;28;20045;-81
2023/04/04 08:56:17;;;;;;;10.57;6.22;;;;;;;;;;5022767;28;20057;-80
2023/04/04 08:58:43;;;;;;;9.82;6.20;;;;;;;;;;5021570;28;20102;-80
2023/04/04 09:01:10;;;;;;;10.77;6.43;;;;;;;;;;5034913;28;20445;-80
2023/04/04 09:03:37;;;;;;;10.07;6.53;;;;;;;;;;5020702;28;20041;-80
2023/04/04 09:06:04;;;;;;;8.90;6.15;;;;;;;;;;5044108;28;20480;-80
2023/04/04 09:08:30;;;;;;;8.32;6.03;;;;;;;;;;5037435;28;20099;-81
2023/04/04 09:10:56;;;;;;;9.73;6.70;;;;;;;;;;5020089;28;20113;-80
2023/04/04 09:13:23;;;;;;;10.45;6.57;;;;;;;;;;5022789;28;20041;-80
2023/04/04 09:15:50;;;;;;;9.38;6.22;;;;;;;;;;5034587;28;20095;-81
2023/04/04 09:18:16;;;;;;;12.20;6.70;;;;;;;;;;5019957;28;20053;-81
2023/04/04 09:20:43;;;;;;;8.48;6.20;;;;;;;;;;5034933;28;20572;-80
2023/04/04 09:23:19;;;;;;;8.20;6.00;;;;;;;;;;5033086;28;20049;-81
2023/04/04 09:25:50;;;;;;;9.35;6.60;;;;;;;;;;5033696;28;20123;-81
2023/04/04 09:28:16;;;;;;;9.85;6.55;;;;;;;;;;5014101;28;20045;-81
2023/04/04 09:30:47;;;;;;;9.88;6.40;;;;;;;;;;5017072;28;20057;-81
2023/04/04 09:33:13;;;;;;;8.35;6.07;;;;;;;;;;5032597;28;20061;-80
2023/04/04 09:35:43;;;;;;;8.93;6.93;;;;;;;;;;5032007;28;20455;-81
2023/04/04 09:38:09;;;;;;;10.82;6.40;;;;;;;;;;5036212;28;20041;-80
2023/04/04 09:40:36;;;;;;;8.93;6.55;;;;;;;;;;5020960;28;20046;-80
2023/04/04 09:43:03;;;;;;;9.50;6.55;;;;;;;;;;5045725;28;20057;-79
2023/04/04 09:45:34;;;;;;;7.93;6.70;;;;;;;;;;5040844;28;20524;-80
2023/04/04 09:48:01;;;;;;;9.32;6.85;;;;;;;;;;5037905;28;21367;-80
2023/04/04 09:50:29;;;;;;;9.20;6.70;;;;;;;;;;5024523;28;20187;-80
2023/04/04 09:52:58;;;;;;;11.32;6.85;;;;;;;;;;5041224;28;20041;-80
2023/04/04 09:55:35;;;;;;;9.10;6.68;;;;;;;;;;5013012;28;20129;-80
2023/04/04 09:58:27;;;;;;;11.88;6.28;;;;;;;;;;5013954;28;20049;-80
2023/04/04 10:00:58;;;;;;;9.02;6.38;;;;;;;;;;5016731;28;20072;-80
2023/04/04 10:03:25;;;;;;;9.10;7.05;;;;;;;;;;5024219;28;20105;-80
2023/04/04 10:06:00;;;;;;;11.95;7.13;;;;;;;;;;5009169;28;20050;-80
2023/04/04 10:08:27;;;;;;;8.65;6.90;;;;;;;;;;5010806;28;20045;-80
2023/04/04 10:10:57;;;;;;;9.98;6.55;;;;;;;;;;5014164;28;20042;-80
2023/04/04 10:13:24;;;;;;;10.80;7.22;;;;;;;;;;5014537;28;20139;-80
2023/04/04 10:15:54;;;;;;;10.98;7.13;;;;;;;;;;5013866;28;20053;-80
2023/04/04 10:18:25;;;;;;;8.68;6.63;;;;;;;;;;5015146;28;20045;-79
2023/04/04 10:20:52;;;;;;;10.50;6.90;;;;;;;;;;5016532;28;20030;-80
2023/04/04 10:23:19;;;;;;;7.90;6.72;;;;;;;;;;5014863;28;20049;-79
2023/04/04 10:25:46;;;;;;;7.80;6.50;;;;;;;;;;5015873;28;20170;-80
2023/04/04 10:28:12;;;;;;;8.20;6.18;;;;;;;;;;5015638;28;20045;-80
2023/04/04 10:30:45;;;;;;;10.65;6.80;;;;;;;;;;5015576;28;20049;-80
2023/04/04 10:33:14;;;;;;;7.47;6.10;;;;;;;;;;5010956;28;20067;-81
2023/04/04 10:35:44;;;;;;;8.85;6.63;;;;;;;;;;5011773;28;20112;-81
2023/04/04 10:38:11;;;;;;;12.68;6.95;;;;;;;;;;5013460;28;20073;-81
2023/04/04 10:40:38;;;;;;;11.40;7.15;;;;;;;;;;5012997;28;20041;-79
2023/04/04 10:43:05;;;;;;;9.43;6.70;;;;;;;;;;5010777;28;20077;-80
2023/04/04 10:45:32;;;;;;;10.18;7.22;;;;;;;;;;5011903;28;20037;-80
2023/04/04 10:47:58;;;;;;;9.50;6.65;;;;;;;;;;5019050;28;20124;-80
2023/04/04 10:50:24;;;;;;;12.73;7.47;;;;;;;;;;5015257;28;20071;-81
2023/04/04 10:52:51;;;;;;;9.05;7.25;;;;;;;;;;5016509;28;20038;-80
2023/04/04 10:55:17;;;;;;;12.57;7.43;;;;;;;;;;5029628;28;20060;-81
2023/04/04 10:57:46;;;;;;;11.93;7.28;;;;;;;;;;5028939;28;20049;-80
2023/04/04 11:00:13;;;;;;;6.93;6.22;;;;;;;;;;5015149;28;20520;-80
2023/04/04 11:02:58;;;;;;;7.35;6.35;;;;;;;;;;5033911;28;20045;-80
2023/04/04 11:05:32;;;;;;;9.23;7.05;;;;;;;;;;5035011;28;20045;-80
2023/04/04 11:08:05;;;;;;;9.55;6.68;;;;;;;;;;5034025;28;20443;-80
2023/04/04 11:10:33;;;;;;;9.20;7.57;;;;;;;;;;5040537;28;20073;-80
2023/04/04 11:13:06;;;;;;;10.57;5.57;;;;;;;;;;5021207;28;20316;-79
2023/04/04 11:15:33;;;;;;;;;;;;;;;;;;5021732;28;20506;-80
2023/04/04 11:18:00;;;;;;;8.90;7.25;;;;;;;;;;5015777;28;19921;-81
2023/04/04 11:20:34;;;;;;;9.05;6.55;;;;;;;;;;5019887;28;20069;-80
2023/04/04 11:23:00;;;;;;;;;;;;;;;;;;5013699;28;20099;-80
2023/04/04 11:25:32;;;;;;;8.98;6.57;;;;;;;;;;5014087;28;19925;-80
2023/04/04 11:27:58;;;;;;;7.90;6.38;;;;;;;;;;5010260;28;20053;-80
2023/04/04 11:30:27;;;;;;;10.70;6.82;;;;;;;;;;5040410;28;20049;-80
2023/04/04 11:32:57;;;;;;;8.75;6.63;;;;;;;;;;5013215;28;20053;-79
2023/04/04 11:35:23;;;;;;;9.02;6.30;;;;;;;;;;5018166;28;20041;-77
2023/04/04 11:37:54;;;;;;;8.40;6.40;;;;;;;;;;5038242;28;20048;-77
2023/04/04 11:40:33;;;;;;;11.45;6.85;;;;;;;;;;5029342;28;20075;-77
2023/04/04 11:43:02;;;;;;;10.07;6.32;;;;;;;;;;5040766;28;20124;-77
2023/04/04 11:45:30;;;;;;;7.18;5.38;;;;;;;;;;5039686;28;20496;-77
2023/04/04 11:47:58;;;;;;;7.90;5.22;;;;;;;;;;5014656;28;20091;-78
2023/04/04 11:50:24;;;;;;;6.18;4.90;;;;;;;;;;5019373;28;20473;-77
2023/04/04 11:52:50;;;;;;;9.20;6.20;;;;;;;;;;5014508;28;20150;-77
2023/04/04 11:55:17;;;;;;;7.45;6.30;;;;;;;;;;5028902;28;20465;-77
2023/04/04 11:57:43;;;;;;;10.68;6.60;;;;;;;;;;5036467;28;20041;-76
2023/04/04 12:00:14;;;;;;;11.65;6.05;;;;;;;;;;5015042;28;20489;-77
2023/04/04 12:02:41;;;;;;;9.32;7.03;;;;;;;;;;5024734;28;20059;-77
2023/04/04 12:05:07;;;;;;;10.88;6.85;;;;;;;;;;5014887;28;20059;-77
2023/04/04 12:07:34;;;;;;;7.95;5.32;;;;;;;;;;5031381;28;20041;-77
2023/04/04 12:10:00;;;;;;;8.57;5.75;;;;;;;;;;5017667;28;20273;-77
2023/04/04 12:12:29;;;;;;;8.55;5.97;;;;;;;;;;5026216;28;20056;-77
2023/04/04 12:14:55;;;;;;;8.75;5.97;;;;;;;;;;5023492;28;20046;-77
2023/04/04 12:17:21;;;;;;;7.97;5.97;;;;;;;;;;5037768;28;20497;-77
2023/04/04 12:19:47;;;;;;;7.32;5.57;;;;;;;;;;5034619;28;20039;-77
2023/04/04 12:22:13;;;;;;;12.30;6.57;;;;;;;;;;5038289;28;20037;-78
2023/04/04 12:24:40;;;;;;;9.32;7.28;;;;;;;;;;5039405;28;20086;-77
2023/04/04 12:27:06;;;;;;;9.85;6.88;;;;;;;;;;5020527;28;20049;-77
2023/04/04 12:29:35;;;;;;;9.95;7.20;;;;;;;;;;5026786;28;20096;-77
2023/04/04 12:32:01;;;;;;;9.57;7.63;;;;;;;;;;5019480;28;20053;-77
2023/04/04 12:34:31;;;;;;;10.98;6.35;;;;;;;;;;5035745;28;20123;-77
2023/04/04 12:36:58;;;;;;;8.95;5.80;;;;;;;;;;5022034;28;20484;-77
2023/04/04 12:39:28;;;;;;;12.00;6.72;;;;;;;;;;5044073;28;20041;-77
2023/04/04 12:41:57;;;;;;;8.70;6.38;;;;;;;;;;5020581;28;20107;-77
2023/04/04 12:44:31;;;;;;;10.18;6.40;;;;;;;;;;5021524;28;20047;-77
2023/04/04 12:46:58;;;;;;;10.13;6.68;;;;;;;;;;5042037;28;20404;-77
2023/04/04 12:49:28;;;;;;;10.80;7.53;;;;;;;;;;5033029;28;20052;-77
2023/04/04 12:51:55;;;;;;;8.70;6.28;;;;;;;;;;5023962;28;20106;-77
2023/04/04 12:54:28;;;;;;;9.38;6.90;;;;;;;;;;5023052;28;20045;-77
2023/04/04 12:56:58;;;;;;;9.48;6.40;;;;;;;;;;5022115;28;20049;-78
2023/04/04 12:59:27;;;;;;;9.95;6.40;;;;;;;;;;5038163;28;20551;-78
2023/04/04 13:01:53;;;;;;;7.80;5.68;;;;;;;;;;5015152;28;20044;-77
2023/04/04 13:04:19;;;;;;;9.80;6.65;;;;;;;;;;5015147;28;20055;-78
2023/04/04 13:06:46;;;;;;;8.70;6.40;;;;;;;;;;5016640;28;20389;-78
2023/04/04 13:09:20;;;;;;;8.02;5.57;;;;;;;;;;5025314;28;20505;-78
2023/04/04 13:11:58;;;;;;;10.25;6.20;;;;;;;;;;5035413;28;20045;-78
2023/04/04 13:14:25;;;;;;;9.50;6.45;;;;;;;;;;5047032;28;20123;-77
2023/04/04 13:17:03;;;;;;;8.73;5.82;;;;;;;;;;5018827;28;20041;-78
2023/04/04 13:19:29;;;;;;;8.48;6.03;;;;;;;;;;5009781;28;20076;-77
2023/04/04 13:21:55;;;;;;;10.20;6.47;;;;;;;;;;5045977;28;20044;-78
2023/04/04 13:24:21;;;;;;;8.38;5.82;;;;;;;;;;5047138;28;20045;-78
2023/04/04 13:26:47;;;;;;;10.20;6.32;;;;;;;;;;5014904;28;20037;-77
2023/04/04 13:29:13;;;;;;;9.55;5.93;;;;;;;;;;5044464;28;20488;-78
2023/04/04 13:31:39;;;;;;;8.27;5.80;;;;;;;;;;5050400;28;20045;-78
2023/04/04 13:34:05;;;;;;;7.65;5.57;;;;;;;;;;5031611;28;20095;-77
2023/04/04 13:36:31;;;;;;;8.80;5.70;;;;;;;;;;5033830;28;20053;-77
2023/04/04 13:38:57;;;;;;;9.40;5.30;;;;;;;;;;5047905;28;20373;-78
2023/04/04 13:41:23;;;;;;;9.40;6.10;;;;;;;;;;5024220;28;20045;-78
2023/04/04 13:43:49;;;;;;;6.85;5.43;;;;;;;;;;5034658;28;20103;-77
2023/04/04 13:46:15;;;;;;;7.68;5.80;;;;;;;;;;5032471;28;20397;-78
2023/04/04 13:48:41;;;;;;;7.85;5.43;;;;;;;;;;5026773;28;20378;-77
2023/04/04 13:51:07;;;;;;;9.10;5.55;;;;;;;;;;5032946;28;20053;-77
2023/04/04 13:53:33;;;;;;;7.82;5.82;;;;;;;;;;5026051;28;20045;-77
2023/04/04 13:56:00;;;;;;;11.07;5.63;;;;;;;;;;5016708;28;20523;-78
2023/04/04 13:58:26;;;;;;;8.57;5.20;;;;;;;;;;5040942;28;20056;-77
2023/04/04 14:00:52;;;;;;;6.55;5.07;;;;;;;;;;5030877;28;20048;-77
2023/04/04 14:03:18;;;;;;;8.10;5.00;;;;;;;;;;5027813;28;20072;-78
2023/04/04 14:05:44;;;;;;;6.75;4.90;;;;;;;;;;5051037;28;20056;-77
2023/04/04 14:08:10;;;;;;;8.88;5.28;;;;;;;;;;5033634;28;20037;-78
2023/04/04 14:10:36;;;;;;;7.10;5.13;;;;;;;;;;5048093;28;20053;-77
2023/04/04 14:13:03;;;;;;;8.73;5.70;;;;;;;;;;5023186;28;20051;-77
2023/04/04 14:15:29;;;;;;;6.88;5.65;;;;;;;;;;5031747;28;20045;-77
2023/04/04 14:17:55;;;;;;;8.38;5.55;;;;;;;;;;5035099;28;20044;-78
2023/04/04 14:20:21;;;;;;;7.03;5.55;;;;;;;;;;5021211;28;20049;-78
2023/04/04 14:22:47;;;;;;;7.07;5.25;;;;;;;;;;5037472;28;20136;-77
2023/04/04 14:25:13;;;;;;;9.00;5.55;;;;;;;;;;5014001;28;20046;-78
2023/04/04 14:27:39;;;;;;;8.48;5.97;;;;;;;;;;5034662;28;20037;-78
2023/04/04 14:30:05;;;;;;;8.65;5.93;;;;;;;;;;5033476;28;20493;-77
2023/04/04 14:32:31;;;;;;;9.43;5.30;;;;;;;;;;5016537;28;20046;-76
2023/04/04 14:34:57;;;;;;;8.88;5.65;;;;;;;;;;5050690;28;20049;-75
2023/04/04 14:37:23;;;;;;;7.20;5.22;;;;;;;;;;5050574;28;20045;-76
2023/04/04 14:39:49;;;;;;;8.05;5.68;;;;;;;;;;5045488;28;20046;-76